Latest Weather Observations for Mildura

IDN60801

Issued at 6:23 pm EST Saturday 9 May 2026 (issued every 10 minutes, with the page automatically refreshed every 10 minutes)

About weather observations | Map of weather stations | Latest weather observations for NSW | Other Formats
Station Details ID: 076031 Name: MILDURA AIRPORT Lat: -34.24 Lon: 142.09 Height: 50.0 m
Data from the previous 72 hours. | See also: Recent months at Mildura
Date/Time
EST
Temp
°C
App
Temp
°C
Dew
Point
°C
Rel
Hum
%
Delta-T
°C
Wind Press
QNH
hPa
Press
MSL
hPa
Rain since
9am
mm
Dir  Spd
km/h
Gust
km/h
Spd
kts
Gust
kts
09/06:00pm 13.6 12.3 9.3 75 2.2 S 6 7 3 4 1027.8 1027.8 0.0
09/05:30pm 14.9 13.6 9.3 69 2.9 S 6 9 3 5 1027.6 1027.6 0.0
09/05:00pm 15.7 13.9 9.4 66 3.2 S 9 17 5 9 1027.4 1027.4 0.0
09/04:30pm 16.3 14.1 9.5 64 3.5 S 11 17 6 9 1027.3 1027.3 0.0
09/04:00pm 16.5 14.4 9.7 64 3.5 S 11 17 6 9 1027.4 1027.4 0.0
09/03:30pm 16.4 14.3 9.8 65 3.5 S 11 17 6 9 1027.4 1027.4 0.0
09/03:00pm 16.8 15.6 10.4 66 3.4 SW 7 15 4 8 1027.5 1027.5 0.0
09/02:30pm 15.6 13.7 10.4 71 2.7 SSW 11 17 6 9 1027.6 1027.6 0.0
09/02:00pm 15.9 13.8 9.6 66 3.3 SSE 11 17 6 9 1027.6 1027.6 0.0
09/01:30pm 16.1 14.3 9.5 65 3.4 SSE 9 15 5 8 1027.8 1027.8 0.0
09/01:00pm 16.8 14.3 9.7 63 3.7 SSE 13 20 7 11 1028.2 1028.2 0.0
09/12:30pm 16.7 14.6 9.6 63 3.7 SSE 11 19 6 10 1028.8 1028.8 0.0
09/12:00pm 15.0 13.1 10.4 74 2.4 S 11 17 6 9 1029.4 1029.4 0.0
09/11:30am 15.4 14.1 11.2 76 2.3 SSE 9 15 5 8 1029.5 1029.5 0.0
09/11:00am 15.1 13.4 11.3 78 2.0 SSE 11 17 6 9 1029.6 1029.6 0.0
09/10:34am 14.0 11.4 10.8 81 1.7 SSE 15 20 8 11 1029.8 1029.8 0.0
09/10:30am 14.1 11.6 10.9 81 1.7 SSE 15 20 8 11 1029.8 1029.8 0.0
09/10:00am 14.0 11.6 11.3 84 1.4 SSE 15 20 8 11 1029.8 1029.8 0.0
09/09:30am 13.0 11.8 11.6 91 0.7 S 9 15 5 8 1029.9 1029.9 0.0
09/09:00am 13.0 11.9 11.9 93 0.6 S 9 20 5 11 1029.8 1029.8 0.0
09/08:30am 12.4 10.9 11.9 97 0.3 SSW 11 17 6 9 1029.4 1029.4 0.0
09/08:00am 11.8 11.0 11.8 100 0.0 SSW 7 13 4 7 1029.2 1029.2 0.0
09/07:30am 11.2 9.9 11.2 100 0.0 SSW 9 13 5 7 1028.9 1028.9 0.0
09/07:25am 11.1 9.8 11.1 100 0.0 SSW 9 13 5 7 1028.8 1028.8 0.0
09/07:00am 10.8 9.0 10.8 100 0.0 SSW 11 19 6 10 1028.6 1028.6 0.0
09/06:30am 10.7 8.9 10.7 100 0.0 SSW 11 15 6 8 1028.3 1028.3 0.0
09/06:00am 9.9 8.2 9.9 100 0.0 SW 9 11 5 6 1028.2 1028.2 0.0
09/05:30am 9.7 8.0 9.7 100 0.0 SW 9 13 5 7 1028.0 1028.0 0.0
09/05:00am 10.1 8.5 10.1 100 0.0 SW 9 13 5 7 1027.8 1027.8 0.0
09/04:30am 10.2 8.6 10.2 100 0.0 SW 9 13 5 7 1027.7 1027.7 0.0
09/04:00am 10.2 9.0 10.2 100 0.0 WSW 7 11 4 6 1027.8 1027.8 0.0
09/03:30am 10.3 8.6 9.8 97 0.3 SW 9 11 5 6 1027.9 1027.9 0.0
09/03:00am 10.9 9.2 10.0 94 0.5 WSW 9 11 5 6 1028.0 1028.0 0.0
09/02:58am 10.9 9.2 10.0 94 0.5 WSW 9 13 5 7 1028.0 1028.0 0.0
09/02:30am 11.2 9.9 10.0 92 0.6 SW 7 9 4 5 1028.1 1028.1 0.0
09/02:29am 11.2 9.9 10.0 92 0.6 SW 7 9 4 5 1028.1 1028.1 0.0
09/02:00am 11.7 10.0 9.9 89 0.9 SW 9 15 5 8 1028.1 1028.1 0.0
09/01:30am 12.4 10.8 10.1 86 1.2 SW 9 15 5 8 1028.1 1028.1 0.0
09/01:00am 13.2 10.5 10.2 82 1.5 SSW 15 22 8 12 1028.1 1028.1 0.0
09/12:30am 14.0 11.5 9.8 76 2.2 SW 13 22 7 12 1028.0 1028.0 0.0
09/12:00am 14.5 12.2 9.1 70 2.7 SW 11 17 6 9 1028.0 1028.0 0.0
 
Date/Time
EST
Temp
°C
App
Temp
°C
Dew
Point
°C
Rel
Hum
%
Delta-T
°C
Wind Press
QNH
hPa
Press
MSL
hPa
Rain since
9am
mm
Dir  Spd
km/h
Gust
km/h
Spd
kts
Gust
kts
08/11:30pm 15.0 12.3 9.1 68 3.0 SSW 13 20 7 11 1028.0 1028.0 0.0
08/11:00pm 15.3 12.6 8.8 65 3.3 SSW 13 22 7 12 1028.2 1028.2 0.0
08/10:30pm 15.5 12.8 9.0 65 3.3 SSW 13 20 7 11 1028.1 1028.1 0.0
08/10:00pm 15.6 13.7 9.1 65 3.3 SW 9 15 5 8 1028.0 1028.0 0.0
08/09:30pm 15.8 13.5 9.0 64 3.5 SSW 11 17 6 9 1027.9 1027.9 0.0
08/09:00pm 16.0 13.6 8.7 62 3.7 S 11 17 6 9 1027.7 1027.7 0.0
08/08:30pm 16.1 14.2 9.1 63 3.6 S 9 15 5 8 1027.6 1027.6 0.0
08/08:00pm 16.4 14.0 8.6 60 4.0 S 11 17 6 9 1027.5 1027.5 0.0
08/07:30pm 16.9 14.4 8.3 57 4.4 SSW 11 19 6 10 1027.3 1027.3 0.0
08/07:00pm 16.6 14.2 8.6 59 4.1 SSW 11 15 6 8 1027.1 1027.1 0.0
08/06:30pm 16.4 14.4 8.6 60 4.0 SSW 9 17 5 9 1026.7 1026.7 0.0
08/06:00pm 15.9 14.2 8.4 61 3.8 SSW 7 9 4 5 1026.6 1026.6 0.0
08/05:30pm 17.0 14.5 8.4 57 4.4 SSW 11 19 6 10 1026.5 1026.5 0.0
08/05:00pm 18.4 15.3 8.7 53 5.0 SSW 15 22 8 12 1026.3 1026.3 0.0
08/04:30pm 18.0 14.9 8.8 55 4.8 SW 15 28 8 15 1026.4 1026.4 0.0
08/04:00pm 18.7 14.9 8.9 53 5.1 SSW 19 26 10 14 1026.4 1026.4 0.0
08/03:30pm 18.2 14.5 9.3 56 4.7 SSW 19 32 10 17 1026.4 1026.4 0.0
08/03:00pm 18.5 14.8 9.3 55 4.8 SW 19 28 10 15 1026.2 1026.2 0.0
08/02:30pm 17.9 14.2 9.3 57 4.5 SW 19 32 10 17 1026.5 1026.5 0.0
08/02:00pm 18.2 14.9 9.5 57 4.6 WSW 17 32 9 17 1026.7 1026.7 0.0
08/01:30pm 17.6 13.8 9.2 58 4.4 SW 19 30 10 16 1027.1 1027.1 0.0
08/01:00pm 17.8 14.2 9.9 60 4.2 SW 19 30 10 16 1027.7 1027.7 0.0
08/12:30pm 16.9 13.0 9.3 61 4.0 SW 20 33 11 18 1028.3 1028.3 0.0
08/12:00pm 16.7 13.1 9.9 64 3.6 SW 19 28 10 15 1028.7 1028.7 0.0
08/11:30am 15.8 12.1 9.5 66 3.3 SW 19 28 10 15 1029.1 1029.1 0.0
08/11:00am 15.8 12.5 9.5 66 3.2 SW 17 26 9 14 1029.3 1029.3 0.0
08/10:30am 15.2 11.3 9.6 69 2.9 SW 20 32 11 17 1029.4 1029.4 0.0
08/10:00am 14.4 12.3 9.8 74 2.4 WSW 11 20 6 11 1029.0 1029.0 0.0
08/09:30am 12.5 10.3 9.3 81 1.6 WSW 11 20 6 11 1029.2 1029.2 0.0
08/09:00am 11.4 9.6 9.3 87 1.0 SW 9 17 5 9 1029.4 1029.4 0.0
08/08:30am 10.2 8.7 9.3 94 0.4 WSW 7 13 4 7 1029.0 1029.0 0.0
08/08:00am 8.9 6.9 8.6 98 0.1 W 9 13 5 7 1028.6 1028.6 0.0
08/07:30am 8.1 5.9 8.0 99 0.0 W 9 13 5 7 1028.1 1028.1 0.0
08/07:00am 8.1 5.9 7.8 98 0.1 W 9 13 5 7 1027.9 1027.9 0.0
08/06:30am 7.9 5.6 7.5 97 0.2 W 9 13 5 7 1027.9 1027.9 0.0
08/06:00am 8.0 5.6 7.2 95 0.4 W 9 17 5 9 1027.8 1027.8 0.0
08/05:30am 8.1 5.4 7.2 94 0.4 WNW 11 17 6 9 1027.8 1027.8 0.0
08/05:00am 8.2 5.5 7.4 95 0.4 W 11 17 6 9 1027.9 1027.9 0.0
08/04:30am 7.4 4.5 6.5 94 0.4 W 11 15 6 8 1027.9 1027.9 0.0
08/04:00am 7.5 4.9 6.3 92 0.5 WNW 9 15 5 8 1028.0 1028.0 0.0
08/03:30am 7.2 4.6 6.0 92 0.5 W 9 15 5 8 1028.0 1028.0 0.0
08/03:00am 6.9 3.8 5.4 90 0.7 WNW 11 15 6 8 1028.4 1028.4 0.0
08/02:30am 6.9 4.5 5.1 88 0.8 W 7 11 4 6 1028.2 1028.2 0.0
08/02:00am 7.1 4.3 5.1 87 0.9 W 9 11 5 6 1028.3 1028.3 0.0
08/01:30am 6.9 4.0 4.7 86 1.0 WNW 9 13 5 7 1028.4 1028.4 0.0
08/01:00am 7.1 4.2 4.6 84 1.1 WNW 9 11 5 6 1028.7 1028.7 0.0
08/12:30am 8.2 5.3 4.8 79 1.5 WSW 9 13 5 7 1028.8 1028.8 0.0
08/12:00am 8.7 5.5 4.9 77 1.7 WSW 11 15 6 8 1028.7 1028.7 0.0
 
Date/Time
EST
Temp
°C
App
Temp
°C
Dew
Point
°C
Rel
Hum
%
Delta-T
°C
Wind Press
QNH
hPa
Press
MSL
hPa
Rain since
9am
mm
Dir  Spd
km/h
Gust
km/h
Spd
kts
Gust
kts
07/11:30pm 8.8 5.5 4.6 75 1.9 WSW 11 15 6 8 1028.7 1028.7 0.0
07/11:00pm 9.3 6.0 4.5 72 2.1 WSW 11 17 6 9 1028.8 1028.8 0.0
07/10:30pm 9.4 6.0 4.0 69 2.4 WSW 11 15 6 8 1028.9 1028.9 0.0
07/10:00pm 10.6 6.8 4.1 64 2.9 WSW 13 20 7 11 1028.9 1028.9 0.0
07/09:30pm 10.6 6.8 4.1 64 2.9 WSW 13 20 7 11 1028.8 1028.8 0.0
07/09:00pm 10.1 6.6 3.6 64 2.8 WSW 11 15 6 8 1028.7 1028.7 0.0
07/08:30pm 10.0 6.8 3.1 62 3.0 WSW 9 15 5 8 1028.7 1028.7 0.0
07/08:00pm 10.3 7.1 3.1 61 3.1 WSW 9 13 5 7 1028.6 1028.6 0.0
07/07:30pm 9.9 7.1 3.0 62 3.0 WSW 7 9 4 5 1028.5 1028.5 0.0
07/07:00pm 11.1 8.2 2.4 55 3.7 WSW 7 11 4 6 1028.3 1028.3 0.0
07/06:30pm 12.1 8.7 2.0 50 4.3 SW 9 11 5 6 1028.1 1028.1 0.0
07/06:00pm 12.5 9.5 2.1 49 4.5 SW 7 11 4 6 1027.9 1027.9 0.0
07/05:30pm 13.9 9.7 1.5 43 5.4 SW 13 17 7 9 1027.7 1027.7 0.0
07/05:00pm 14.9 10.6 1.1 39 5.9 SSW 13 24 7 13 1027.6 1027.6 0.0
07/04:30pm 15.1 10.0 0.9 38 6.1 SW 17 26 9 14 1027.4 1027.4 0.0
07/04:00pm 15.1 10.1 1.3 39 6.0 SW 17 26 9 14 1027.5 1027.5 0.0
07/03:30pm 15.4 9.8 0.0 35 6.5 SW 19 32 10 17 1027.6 1027.6 0.0
07/03:00pm 15.7 10.3 1.1 37 6.3 SW 19 33 10 18 1027.6 1027.6 0.0
07/02:30pm 15.0 9.3 0.4 37 6.2 SW 20 39 11 21 1027.9 1027.9 0.0
07/02:00pm 15.2 10.1 1.0 38 6.1 SW 17 30 9 16 1028.0 1028.0 0.0
07/01:30pm 15.1 9.6 0.9 38 6.1 SSW 19 32 10 17 1028.1 1028.1 0.0
07/01:00pm 14.2 8.2 0.8 40 5.7 SSW 22 32 12 17 1028.3 1028.3 0.0
07/12:30pm 13.9 8.2 0.5 40 5.7 SSW 20 39 11 21 1028.8 1028.8 0.0
07/12:00pm 13.6 8.0 0.9 42 5.4 SSW 20 35 11 19 1028.9 1028.9 0.0
07/11:30am 13.1 7.2 -0.5 39 5.6 SSW 20 41 11 22 1029.3 1029.3 0.0
07/11:00am 12.6 7.0 0.0 42 5.2 SSW 19 35 10 19 1029.3 1029.3 0.0
07/10:30am 12.2 7.3 1.8 49 4.5 SSW 17 33 9 18 1029.3 1029.3 0.0
07/10:00am 11.2 5.7 1.7 52 4.0 SSW 20 32 11 17 1029.1 1029.1 0.0
07/09:30am 10.4 5.6 2.5 58 3.4 SW 17 26 9 14 1029.0 1029.0 0.0
07/09:00am 9.4 5.7 4.2 70 2.3 SW 13 20 7 11 1028.8 1028.8 0.2
07/08:30am 8.0 4.3 4.2 77 1.7 SW 13 20 7 11 1028.3 1028.3 0.2
07/08:00am 6.7 3.2 3.7 81 1.3 SW 11 17 6 9 1027.7 1027.7 0.2
07/07:30am 5.7 2.6 3.5 86 0.9 SW 9 13 5 7 1027.3 1027.3 0.2
07/07:00am 5.5 2.3 3.3 86 0.9 WSW 9 13 5 7 1026.9 1026.9 0.2
07/06:30am 5.9 2.7 3.2 83 1.1 SW 9 13 5 7 1026.7 1026.7 0.2
07/06:00am 6.3 2.8 3.6 83 1.1 SW 11 15 6 8 1026.4 1026.4 0.2
07/05:30am 6.6 3.5 3.8 82 1.2 SW 9 13 5 7 1026.1 1026.1 0.2
07/05:00am 7.3 3.9 4.1 80 1.4 SW 11 17 6 9 1025.8 1025.8 0.2
07/04:30am 7.0 4.0 4.0 81 1.3 SW 9 13 5 7 1025.5 1025.5 0.2
07/04:00am 7.1 4.1 4.2 82 1.2 SW 9 13 5 7 1025.4 1025.4 0.2
07/03:30am 7.6 5.0 4.0 78 1.6 WSW 7 9 4 5 1025.3 1025.3 0.2
07/03:00am 8.8 5.8 4.2 73 2.0 SW 9 17 5 9 1025.4 1025.4 0.2
07/02:30am 9.4 5.7 4.4 71 2.2 SSW 13 20 7 11 1025.2 1025.2 0.2
07/02:00am 10.2 6.2 5.0 70 2.3 SSW 15 24 8 13 1025.2 1025.2 0.2
07/01:30am 11.1 6.1 4.8 65 2.9 SSW 20 35 11 19 1024.9 1024.9 0.2
07/01:00am 12.3 8.3 6.6 68 2.7 SSW 17 26 9 14 1024.4 1024.4 0.0
07/12:30am 12.7 7.8 6.7 67 2.9 SSW 22 33 12 18 1024.0 1024.0 0.0
07/12:00am 13.0 8.0 7.9 71 2.5 SSW 24 39 13 21 1023.6 1023.6 0.0
 
Date/Time
EST
Temp
°C
App
Temp
°C
Dew
Point
°C
Rel
Hum
%
Delta-T
°C
Wind Press
QNH
hPa
Press
MSL
hPa
Rain since
9am
mm
Dir  Spd
km/h
Gust
km/h
Spd
kts
Gust
kts
06/11:30pm 13.0 10.0 9.1 77 2.0 SW 15 22 8 12 1023.5 1023.5 0.0
06/11:00pm 13.0 9.7 9.4 79 1.8 SSW 17 24 9 13 1023.3 1023.3 0.0
06/10:30pm 13.9 11.6 10.5 80 1.8 SSW 13 32 7 17 1023.1 1023.1 0.0
06/10:00pm 14.2 11.8 11.4 83 1.5 SW 15 22 8 12 1022.8 1022.8 0.0
06/09:30pm 14.4 12.8 11.6 83 1.5 WSW 11 17 6 9 1022.5 1022.5 0.0
06/09:00pm 14.4 13.3 11.9 85 1.3 WSW 9 13 5 7 1022.4 1022.4 0.0
06/08:30pm 14.4 13.3 11.9 85 1.4 SW 9 15 5 8 1022.1 1022.1 0.0
06/08:00pm 14.9 12.3 10.7 76 2.2 WSW 15 32 8 17 1022.0 1022.0 0.0
06/07:30pm 14.5 12.8 8.5 67 3.0 NW 7 11 4 6 1021.5 1021.5 0.0
06/07:00pm 13.9 12.1 8.1 68 2.9 NW 7 9 4 5 1021.3 1021.3 0.0
06/06:30pm 15.0 13.3 8.3 64 3.4 NW 7 9 4 5 1021.1 1021.1 0.0

Other formats

Comma delimited format used in spreadsheet applications
http://www.bom.gov.au/fwo/IDN60801/IDN60801.94693.axf

JavaScript Object Notation format (JSON) in row-major order
http://www.bom.gov.au/fwo/IDN60801/IDN60801.94693.json

Data quality

Most of these data are generated automatically and are frequently updated. Quality checks on data are not normally performed. It is possible for incorrect values to appear. Refer to information at About Latest Weather Observations and please check the disclaimer before using these data.